createdAt,value
2022-12-09T00:02:07.777Z,34.45
2022-12-09T00:07:02.062Z,34.08
2022-12-09T00:11:57.473Z,29.48
2022-12-09T00:16:51.514Z,27.83
2022-12-09T00:21:51.072Z,27.83
2022-12-09T00:26:45.224Z,26.50
2022-12-09T00:31:39.349Z,27.98
2022-12-09T00:36:35.288Z,29.65
2022-12-09T00:41:30.386Z,30.33
2022-12-09T00:46:24.648Z,28.25
2022-12-09T00:51:20.883Z,29.15
2022-12-09T00:56:14.635Z,28.50
2022-12-09T01:01:09.301Z,29.80
2022-12-09T01:06:12.897Z,30.80
2022-12-09T01:11:14.830Z,29.65
2022-12-09T01:16:23.108Z,34.00
2022-12-09T01:21:17.260Z,31.88
2022-12-09T01:26:11.478Z,31.88
2022-12-09T01:31:10.157Z,30.45
2022-12-09T01:36:08.010Z,33.08
2022-12-09T01:41:02.112Z,32.72
2022-12-09T01:45:54.867Z,31.02
2022-12-09T01:51:14.411Z,32.42
2022-12-09T01:56:20.521Z,31.42
2022-12-09T02:01:13.518Z,31.88
2022-12-09T02:06:07.658Z,30.33
2022-12-09T02:11:27.448Z,32.05
2022-12-09T02:16:23.721Z,32.22
2022-12-09T02:21:23.911Z,33.15
2022-12-09T02:26:31.687Z,32.92
2022-12-09T02:31:47.914Z,33.90
2022-12-09T02:37:07.498Z,30.38
2022-12-09T02:42:03.323Z,32.47
2022-12-09T02:46:58.993Z,30.48
2022-12-09T02:51:53.239Z,32.67
2022-12-09T02:56:54.128Z,31.60
2022-12-09T03:02:06.542Z,30.75
2022-12-09T03:07:16.523Z,35.92
2022-12-09T03:12:12.312Z,32.85
2022-12-09T03:17:20.371Z,31.52
2022-12-09T03:22:20.913Z,34.60
2022-12-09T03:27:19.376Z,34.55
2022-12-09T03:32:12.886Z,34.67
2022-12-09T03:37:07.797Z,35.72
2022-12-09T03:42:05.719Z,35.53
2022-12-09T03:47:01.080Z,34.13
2022-12-09T03:52:18.351Z,36.15
2022-12-09T03:57:19.095Z,34.28
2022-12-09T04:02:12.875Z,36.60
2022-12-09T04:07:06.972Z,32.67
2022-12-09T04:12:01.694Z,32.75
2022-12-09T04:16:55.385Z,33.22
2022-12-09T04:21:48.960Z,32.83
2022-12-09T04:26:43.190Z,36.08
2022-12-09T04:31:37.322Z,33.80
2022-12-09T04:36:30.392Z,32.65
2022-12-09T04:41:24.057Z,35.10
2022-12-09T04:46:18.669Z,33.03
2022-12-09T04:51:14.456Z,33.13
2022-12-09T04:56:17.143Z,34.78
2022-12-09T05:01:13.096Z,34.67
2022-12-09T05:06:13.364Z,33.38
2022-12-09T05:11:07.058Z,35.42
2022-12-09T05:16:16.402Z,33.88
2022-12-09T05:21:13.756Z,34.35
2022-12-09T05:26:09.551Z,35.28
2022-12-09T05:31:04.939Z,33.63
2022-12-09T05:35:57.978Z,34.22
2022-12-09T05:40:52.042Z,33.20
2022-12-09T05:45:46.077Z,34.55
2022-12-09T05:50:40.180Z,32.88
2022-12-09T05:55:34.958Z,33.13
2022-12-09T06:00:29.719Z,33.03
2022-12-09T06:05:24.511Z,32.60
2022-12-09T06:10:18.937Z,34.90
2022-12-09T06:15:17.026Z,33.00
2022-12-09T06:20:14.529Z,32.55
2022-12-09T06:25:09.311Z,34.28
2022-12-09T06:30:03.360Z,31.85
2022-12-09T06:34:57.336Z,32.70
2022-12-09T06:39:51.001Z,30.30
2022-12-09T06:44:45.553Z,28.75
2022-12-09T06:49:40.425Z,31.42
2022-12-09T06:54:36.016Z,29.83
2022-12-09T06:59:29.364Z,29.45
2022-12-09T07:04:24.112Z,28.20
2022-12-09T07:09:20.147Z,28.88
2022-12-09T07:14:16.154Z,32.03
2022-12-09T07:19:18.405Z,29.13
2022-12-09T07:24:13.478Z,27.90
2022-12-09T07:29:07.992Z,28.17
2022-12-09T07:34:03.131Z,29.10
2022-12-09T07:39:08.433Z,25.98
2022-12-09T07:44:01.952Z,27.77
2022-12-09T07:48:56.210Z,25.13
2022-12-09T07:53:50.329Z,24.42
2022-12-09T07:58:45.837Z,25.10
2022-12-09T08:03:40.297Z,22.50
2022-12-09T08:08:34.850Z,23.08
2022-12-09T08:13:29.224Z,21.73
2022-12-09T08:18:24.579Z,26.35
2022-12-09T08:23:18.716Z,20.58
2022-12-09T08:28:13.027Z,16.95
2022-12-09T08:33:07.515Z,19.20
2022-12-09T08:38:01.673Z,18.23
2022-12-09T08:42:56.170Z,18.40
2022-12-09T08:47:50.028Z,19.42
2022-12-09T08:52:44.354Z,13.50
2022-12-09T08:57:37.941Z,16.50
2022-12-09T09:02:32.730Z,20.23
2022-12-09T09:07:26.369Z,21.67
2022-12-09T09:12:20.897Z,19.33
2022-12-09T09:17:15.204Z,27.20
2022-12-09T09:22:10.000Z,23.10
2022-12-09T09:27:02.904Z,20.15
2022-12-09T09:31:57.343Z,24.02
2022-12-09T09:36:52.039Z,41.63
2022-12-09T09:42:10.377Z,90.65
2022-12-09T09:47:13.151Z,91.00
2022-12-09T09:52:10.256Z,41.15
2022-12-09T09:57:36.016Z,31.15
2022-12-09T10:02:55.972Z,32.38
2022-12-09T10:08:04.057Z,69.70
2022-12-09T10:13:12.361Z,47.13
2022-12-09T10:18:28.876Z,22.95
2022-12-09T10:23:23.578Z,28.85
2022-12-09T10:28:32.002Z,22.80
2022-12-09T10:33:37.118Z,24.67
2022-12-09T10:38:32.406Z,15.98
2022-12-09T10:43:38.711Z,19.98
2022-12-09T10:48:38.731Z,15.30
2022-12-09T10:53:33.146Z,14.73
2022-12-09T10:58:31.808Z,14.88
2022-12-09T11:03:38.930Z,12.82
2022-12-09T11:08:33.271Z,14.57
2022-12-09T11:13:38.608Z,15.13
2022-12-09T11:18:38.095Z,11.95
2022-12-09T11:23:31.705Z,13.38
2022-12-09T11:28:41.980Z,13.02
2022-12-09T11:34:03.403Z,13.43
2022-12-09T11:39:11.790Z,12.02
2022-12-09T11:44:21.531Z,10.85
2022-12-09T11:49:17.408Z,11.40
2022-12-09T11:54:23.298Z,27.38
2022-12-09T11:59:21.926Z,22.00
2022-12-09T12:04:32.897Z,12.20
2022-12-09T12:09:49.277Z,34.90
2022-12-09T12:14:43.705Z,14.07
2022-12-09T12:19:41.473Z,8.95
2022-12-09T12:24:46.402Z,8.95
2022-12-09T12:29:49.946Z,7.88
2022-12-09T12:34:55.958Z,7.22
2022-12-09T12:40:22.001Z,8.85
2022-12-09T12:45:54.956Z,9.25
2022-12-09T12:51:16.220Z,6.38
2022-12-09T12:56:16.413Z,8.23
2022-12-09T13:01:13.837Z,6.95
2022-12-09T13:06:16.399Z,7.35
2022-12-09T13:11:14.727Z,6.20
2022-12-09T13:16:30.532Z,6.75
2022-12-09T13:21:28.951Z,7.43
2022-12-09T13:26:21.583Z,92.93
2022-12-09T13:31:14.899Z,19.25
2022-12-09T13:36:14.231Z,7.45
2022-12-09T13:41:52.012Z,6.22
2022-12-09T13:46:46.566Z,5.97
2022-12-09T13:51:53.421Z,6.00
2022-12-09T13:57:03.614Z,5.95
2022-12-09T14:02:31.926Z,8.02
2022-12-09T14:07:36.798Z,5.60
2022-12-09T14:12:31.195Z,7.00
2022-12-09T14:17:27.729Z,5.70
2022-12-09T14:22:21.103Z,6.07
2022-12-09T14:27:23.644Z,6.00
2022-12-09T14:32:26.868Z,6.78
2022-12-09T14:37:25.438Z,6.95
2022-12-09T14:43:06.402Z,6.43
2022-12-09T14:53:00.887Z,7.15
2022-12-09T14:57:56.660Z,5.80
2022-12-09T15:03:30.012Z,5.95
2022-12-09T15:08:41.309Z,6.32
2022-12-09T15:13:41.284Z,6.65
2022-12-09T15:18:39.038Z,6.47
2022-12-09T15:23:56.081Z,6.20
2022-12-09T15:28:54.568Z,6.47
2022-12-09T15:33:54.572Z,7.10
2022-12-09T15:38:55.805Z,6.03
2022-12-09T15:43:55.961Z,6.07
2022-12-09T15:49:01.987Z,7.88
2022-12-09T15:54:02.200Z,8.98
2022-12-09T15:59:01.150Z,113.95
2022-12-09T16:03:57.817Z,38.22
2022-12-09T16:08:55.316Z,12.03
2022-12-09T16:14:02.611Z,12.43
2022-12-09T16:19:05.674Z,12.18
2022-12-09T16:24:16.966Z,8.57
2022-12-09T16:29:28.985Z,11.00
2022-12-09T16:34:22.911Z,14.02
2022-12-09T16:39:25.534Z,14.05
2022-12-09T16:44:28.795Z,15.02
2022-12-09T16:49:23.220Z,13.25
2022-12-09T16:54:20.775Z,14.68
2022-12-09T16:59:15.215Z,16.15
2022-12-09T17:04:26.777Z,15.85
2022-12-09T17:09:19.799Z,16.10
2022-12-09T17:14:15.226Z,16.55
2022-12-09T17:19:08.950Z,15.20
2022-12-09T17:24:03.402Z,16.40
2022-12-09T17:29:01.563Z,16.40
2022-12-09T17:33:57.871Z,17.87
2022-12-09T17:38:52.434Z,16.27
2022-12-09T17:43:46.308Z,19.33
2022-12-09T17:48:41.932Z,16.10
2022-12-09T17:53:40.077Z,17.08
2022-12-09T17:58:33.455Z,18.38
2022-12-09T18:03:54.407Z,15.45
2022-12-09T18:08:39.764Z,16.35
2022-12-09T18:13:33.589Z,17.92
2022-12-09T18:31:11.441Z,16.92
2022-12-09T18:36:13.890Z,16.27
2022-12-09T18:41:15.276Z,16.45
2022-12-09T18:46:35.664Z,15.88
2022-12-09T18:56:21.802Z,15.30
2022-12-09T19:01:20.236Z,16.95
2022-12-09T19:06:19.866Z,23.77
2022-12-09T19:11:13.966Z,14.88
2022-12-09T19:16:09.161Z,17.38
2022-12-09T19:21:14.438Z,13.77
2022-12-09T19:26:16.412Z,13.73
2022-12-09T19:31:17.729Z,14.63
2022-12-09T19:36:12.356Z,14.20
2022-12-09T19:41:06.602Z,14.55
2022-12-09T19:46:04.474Z,15.48
2022-12-09T19:50:58.069Z,15.07
2022-12-09T19:55:51.812Z,13.77
2022-12-09T20:00:46.512Z,13.80
2022-12-09T20:05:48.266Z,14.18
2022-12-09T20:10:46.205Z,15.35
2022-12-09T20:15:40.414Z,16.63
2022-12-09T20:20:37.542Z,14.48
2022-12-09T20:25:33.136Z,14.30
2022-12-09T20:30:28.505Z,13.60
2022-12-09T20:35:20.852Z,13.20
2022-12-09T20:40:14.689Z,12.80
2022-12-09T20:45:08.622Z,14.15
2022-12-09T20:50:01.997Z,16.70
2022-12-09T20:54:56.192Z,15.50
2022-12-09T20:59:50.387Z,16.25
2022-12-09T21:04:46.045Z,16.85
2022-12-09T21:09:40.765Z,15.38
2022-12-09T21:14:37.172Z,16.33
2022-12-09T21:19:32.845Z,16.23
2022-12-09T21:24:26.435Z,18.83
2022-12-09T21:29:20.158Z,13.10
2022-12-09T21:34:15.201Z,14.65
2022-12-09T21:39:09.503Z,15.55
2022-12-09T21:44:03.763Z,16.98
2022-12-09T21:49:03.673Z,17.77
2022-12-09T21:53:59.571Z,15.85
2022-12-09T21:58:55.553Z,17.05
2022-12-09T22:03:49.771Z,17.35
2022-12-09T22:08:47.808Z,16.45
2022-12-09T22:13:41.583Z,17.73
2022-12-09T22:18:38.825Z,18.17
2022-12-09T22:23:33.469Z,18.47
2022-12-09T22:28:28.051Z,18.15
2022-12-09T22:33:23.355Z,18.55
2022-12-09T22:38:22.930Z,19.08
2022-12-09T22:43:17.523Z,17.00
2022-12-09T22:48:15.286Z,16.40
2022-12-09T22:53:10.322Z,27.45
2022-12-09T22:58:05.218Z,18.08
2022-12-09T23:03:00.655Z,15.63
2022-12-09T23:07:55.351Z,11.48
2022-12-09T23:12:50.554Z,12.35
2022-12-09T23:17:44.233Z,13.63
2022-12-09T23:22:38.165Z,11.80
2022-12-09T23:27:32.185Z,10.52
2022-12-09T23:32:26.106Z,10.30
2022-12-09T23:37:20.142Z,11.25
2022-12-09T23:42:15.021Z,9.32
2022-12-09T23:47:08.505Z,9.10
2022-12-09T23:52:02.340Z,9.10
2022-12-09T23:56:56.883Z,8.05
